Time;durP1;ratioP1;P1;durP2;ratioP2;P2;SDS_P1;SDS_P2;PMS_P1;PMS_P2;Temp;Humidity;BMP_temperature;BMP_pressure;BME280_temperature;BME280_humidity;BME280_pressure;Samples;Min_cycle;Max_cycle;Signal;HPM_P1;HPM_P2
2022/07/06 00:01:13;;;;;;;3.38;0.90;;;;;;;17.07;53.44;101334.38;4947558;28;20055;-59
2022/07/06 00:03:40;;;;;;;2.25;0.80;;;;;;;17.03;53.57;101326.72;4953357;28;21052;-59
2022/07/06 00:06:07;;;;;;;6.43;0.90;;;;;;;17.00;53.89;101329.63;4948215;28;20043;-58
2022/07/06 00:08:36;;;;;;;2.88;0.93;;;;;;;16.95;54.05;101344.09;4943958;28;21028;-60
2022/07/06 00:11:03;;;;;;;2.53;1.08;;;;;;;16.92;54.00;101339.00;4949185;28;20065;-60
2022/07/06 00:13:30;;;;;;;3.83;1.05;;;;;;;16.89;54.28;101338.41;4940167;28;20057;-58
2022/07/06 00:15:57;;;;;;;4.20;1.10;;;;;;;16.84;54.67;101336.09;4946211;28;21548;-59
2022/07/06 00:18:25;;;;;;;3.33;0.75;;;;;;;16.81;54.55;101332.81;4948084;28;20059;-58
2022/07/06 00:20:53;;;;;;;3.03;1.20;;;;;;;16.79;54.27;101337.38;4932700;28;22383;-58
2022/07/06 00:23:20;;;;;;;4.85;0.85;;;;;;;16.78;54.41;101343.66;4955952;28;20055;-59
2022/07/06 00:25:48;;;;;;;2.33;1.02;;;;;;;16.76;55.29;101337.59;4947851;28;20043;-59
2022/07/06 00:28:15;;;;;;;2.85;0.80;;;;;;;16.75;54.84;101333.22;4939235;28;20046;-61
2022/07/06 00:30:42;;;;;;;3.58;0.90;;;;;;;16.73;54.80;101336.00;4950819;28;20121;-59
2022/07/06 00:33:09;;;;;;;3.40;0.90;;;;;;;16.71;55.02;101335.25;4944719;28;20051;-59
2022/07/06 00:35:36;;;;;;;7.70;1.15;;;;;;;16.67;55.40;101339.94;4931035;28;20420;-59
2022/07/06 00:38:04;;;;;;;5.00;1.00;;;;;;;16.66;55.79;101345.34;4950431;28;20059;-62
2022/07/06 00:40:31;;;;;;;4.38;0.98;;;;;;;16.65;55.36;101343.66;4943536;28;20052;-58
2022/07/06 00:42:58;;;;;;;3.83;0.82;;;;;;;16.63;55.55;101346.44;4953446;28;20665;-57
2022/07/06 00:45:26;;;;;;;2.20;0.80;;;;;;;16.62;56.13;101343.91;4929393;28;20735;-60
2022/07/06 00:47:53;;;;;;;4.93;1.08;;;;;;;16.59;55.71;101339.66;4954433;28;20382;-60
2022/07/06 00:50:21;;;;;;;1.95;1.15;;;;;;;16.57;55.77;101335.38;4947055;28;20059;-58
2022/07/06 00:52:53;;;;;;;2.70;1.10;;;;;;;16.53;56.38;101331.28;4947352;28;20055;-59
2022/07/06 00:55:28;;;;;;;4.25;1.23;;;;;;;16.50;56.51;101337.66;4948085;28;20618;-58
2022/07/06 00:57:56;;;;;;;3.28;1.00;;;;;;;16.47;56.30;101337.88;4943860;28;20086;-59
2022/07/06 01:00:25;;;;;;;3.03;0.88;;;;;;;16.47;56.48;101337.88;4944867;28;20059;-60
2022/07/06 01:02:52;;;;;;;3.50;1.20;;;;;;;16.46;56.64;101350.31;4935325;28;20067;-56
2022/07/06 01:05:20;;;;;;;3.75;1.10;;;;;;;16.44;57.12;101346.94;4948396;28;20047;-59
2022/07/06 01:07:48;;;;;;;7.43;0.98;;;;;;;16.44;56.94;101348.75;4946184;28;20062;-59
2022/07/06 01:10:17;;;;;;;4.40;1.00;;;;;;;16.44;56.86;101346.09;4941471;28;20421;-60
2022/07/06 01:12:45;;;;;;;2.13;1.00;;;;;;;16.44;57.54;101346.94;4933957;28;20058;-59
2022/07/06 01:15:15;;;;;;;11.02;1.13;;;;;;;16.43;57.28;101349.69;4955532;28;20049;-59
2022/07/06 01:17:43;;;;;;;4.90;1.00;;;;;;;16.40;57.87;101347.25;4957175;28;20050;-57
2022/07/06 01:20:23;;;;;;;2.70;1.08;;;;;;;16.40;57.69;101341.94;4946347;28;20059;-57
2022/07/06 01:22:52;;;;;;;2.22;1.20;;;;;;;16.40;57.95;101342.78;4926570;28;20062;-58
2022/07/06 01:25:20;;;;;;;6.85;1.00;;;;;;;16.40;58.10;101333.97;4949639;28;20055;-61
2022/07/06 01:27:47;;;;;;;3.78;1.08;;;;;;;16.40;58.00;101339.28;4944510;28;20047;-61
2022/07/06 01:30:17;;;;;;;2.17;0.88;;;;;;;16.37;57.95;101334.19;4926774;28;20062;-60
2022/07/06 01:32:44;;;;;;;6.68;0.90;;;;;;;16.35;57.92;101347.59;4951159;28;20454;-61
2022/07/06 01:35:13;;;;;;;5.60;1.45;;;;;;;16.37;59.05;101352.78;4949139;28;20477;-56
2022/07/06 01:37:41;;;;;;;5.53;1.50;;;;;;;16.36;59.06;101349.28;4936787;28;20588;-59
2022/07/06 01:40:10;;;;;;;6.63;1.55;;;;;;;16.37;58.66;101344.81;4944968;28;20086;-60
2022/07/06 01:42:37;;;;;;;2.70;1.05;;;;;;;16.38;58.75;101335.88;4949173;28;20063;-58
2022/07/06 01:45:05;;;;;;;2.65;1.00;;;;;;;16.38;58.50;101336.72;4949281;28;20055;-58
2022/07/06 01:47:33;;;;;;;4.70;1.45;;;;;;;16.38;59.03;101333.22;4948853;28;20332;-57
2022/07/06 01:50:01;;;;;;;3.28;1.10;;;;;;;16.38;58.93;101336.72;4950334;28;20043;-58
2022/07/06 01:52:28;;;;;;;3.17;1.10;;;;;;;16.40;59.21;101333.97;4953178;28;20082;-61
2022/07/06 01:54:56;;;;;;;5.07;1.05;;;;;;;16.37;59.07;101328.88;4949253;28;20063;-59
2022/07/06 01:57:23;;;;;;;5.15;0.95;;;;;;;16.39;58.81;101330.47;4943144;28;20070;-60
2022/07/06 01:59:50;;;;;;;8.43;1.42;;;;;;;16.40;59.13;101331.31;4946051;28;20082;-59
2022/07/06 02:02:18;;;;;;;5.28;1.33;;;;;;;16.40;58.89;101332.16;4947614;28;20591;-59
2022/07/06 02:04:45;;;;;;;5.20;1.20;;;;;;;16.41;59.16;101335.66;4946912;28;20075;-58
2022/07/06 02:07:13;;;;;;;4.05;1.10;;;;;;;16.42;59.16;101340.00;4947843;28;20047;-59
2022/07/06 02:09:40;;;;;;;8.00;1.33;;;;;;;16.44;58.50;101336.31;4947923;28;20059;-62
2022/07/06 02:12:07;;;;;;;2.85;1.10;;;;;;;16.49;58.59;101351.91;4942106;28;20125;-58
2022/07/06 02:14:34;;;;;;;11.13;1.80;;;;;;;16.55;58.38;101354.13;4954572;28;20063;-58
2022/07/06 02:17:03;;;;;;;4.55;1.52;;;;;;;16.60;58.17;101362.59;4933669;28;20527;-58
2022/07/06 02:19:40;;;;;;;6.00;1.40;;;;;;;16.60;57.60;101365.25;4942539;28;20058;-57
2022/07/06 02:22:07;;;;;;;4.47;1.33;;;;;;;16.62;57.51;101374.00;4951607;28;20046;-55
2022/07/06 02:24:34;;;;;;;3.55;1.15;;;;;;;16.61;57.69;101380.25;4949777;28;20079;-59
2022/07/06 02:27:02;;;;;;;4.53;1.42;;;;;;;16.59;58.33;101378.69;4944417;28;20062;-58
2022/07/06 02:29:29;;;;;;;6.88;1.50;;;;;;;16.50;59.23;101380.19;4931422;28;20059;-59
2022/07/06 02:31:56;;;;;;;6.13;1.55;;;;;;;16.57;60.64;101385.91;4948250;28;20055;-57
2022/07/06 02:34:23;;;;;;;6.20;1.33;;;;;;;16.51;61.71;101383.69;4949464;28;20083;-59
2022/07/06 02:36:51;;;;;;;14.95;2.10;;;;;;;16.44;63.06;101393.94;4945212;28;20047;-60
2022/07/06 02:39:18;;;;;;;8.05;1.48;;;;;;;16.30;64.25;101389.59;4944407;28;20051;-59
2022/07/06 02:41:45;;;;;;;4.68;1.70;;;;;;;16.18;66.07;101393.09;4932476;28;20412;-59
2022/07/06 02:44:12;;;;;;;9.05;1.55;;;;;;;16.05;66.74;101390.44;4947490;28;20039;-61
2022/07/06 02:46:39;;;;;;;3.53;1.23;;;;;;;15.98;68.02;101385.66;4927026;28;20080;-59
2022/07/06 02:49:06;;;;;;;6.22;1.88;;;;;;;15.91;70.97;101386.09;4953753;28;20050;-58
2022/07/06 02:51:34;;;;;;;6.07;1.58;;;;;;;15.89;70.81;101393.31;4948408;28;20058;-59
2022/07/06 02:54:01;;;;;;;4.90;1.65;;;;;;;15.88;71.71;101393.41;4943051;28;20055;-59
2022/07/06 02:56:28;;;;;;;6.63;1.63;;;;;;;15.81;72.27;101394.81;4952269;28;20054;-59
2022/07/06 02:58:55;;;;;;;3.40;1.40;;;;;;;15.76;73.22;101388.94;4943857;28;20094;-59
2022/07/06 03:01:23;;;;;;;5.45;1.50;;;;;;;15.74;73.91;101393.53;4949985;28;20059;-60
2022/07/06 03:03:50;;;;;;;2.30;1.50;;;;;;;15.74;73.76;101393.53;4945803;28;20069;-57
2022/07/06 03:06:17;;;;;;;7.78;1.45;;;;;;;15.73;75.59;101392.69;4945779;28;20059;-59
2022/07/06 03:08:44;;;;;;;4.82;1.10;;;;;;;15.70;74.88;101393.72;4945609;28;20043;-58
2022/07/06 03:11:11;;;;;;;4.47;1.65;;;;;;;15.69;76.31;101388.53;4948121;28;20058;-59
2022/07/06 03:13:39;;;;;;;6.75;1.92;;;;;;;15.63;75.81;101387.13;4949259;28;20062;-60
2022/07/06 03:16:06;;;;;;;6.35;1.70;;;;;;;15.61;76.21;101389.00;4946813;28;20491;-58
2022/07/06 03:18:33;;;;;;;6.95;1.75;;;;;;;15.59;75.65;101398.88;4959220;28;20055;-58
2022/07/06 03:21:03;;;;;;;3.28;1.67;;;;;;;15.63;75.96;101402.19;4947430;28;21899;-60
2022/07/06 03:23:30;;;;;;;5.35;1.55;;;;;;;15.61;76.07;101396.97;4955002;28;20063;-54
2022/07/06 03:25:57;;;;;;;4.60;1.40;;;;;;;15.60;76.53;101399.75;4952974;28;20054;-54
2022/07/06 03:28:24;;;;;;;6.93;1.90;;;;;;;15.54;76.36;101400.16;4958991;28;20074;-59
2022/07/06 03:30:52;;;;;;;8.48;2.10;;;;;;;15.51;76.74;101400.38;4943526;28;20062;-58
2022/07/06 03:33:19;;;;;;;15.00;1.80;;;;;;;15.49;77.20;101400.47;4945931;28;20179;-58
2022/07/06 03:35:46;;;;;;;8.45;2.38;;;;;;;15.49;76.83;101395.16;4927989;28;20072;-59
2022/07/06 03:38:14;;;;;;;4.00;1.63;;;;;;;15.48;76.90;101398.75;4954408;28;20047;-60
2022/07/06 03:40:41;;;;;;;4.50;1.90;;;;;;;15.47;76.89;101398.88;4945884;28;20074;-57
2022/07/06 03:43:08;;;;;;;4.03;1.65;;;;;;;15.45;76.85;101399.81;4953497;28;20061;-63
2022/07/06 03:45:35;;;;;;;6.38;1.83;;;;;;;15.43;77.02;101398.22;4946868;28;20471;-59
2022/07/06 03:48:02;;;;;;;9.90;2.10;;;;;;;15.40;77.23;101398.41;4950813;28;20054;-60
2022/07/06 03:50:30;;;;;;;4.28;1.35;;;;;;;15.37;77.08;101401.28;4940888;28;20055;-59
2022/07/06 03:52:58;;;;;;;4.30;1.50;;;;;;;15.36;77.03;101394.28;4943468;28;20389;-59
2022/07/06 03:55:25;;;;;;;6.60;1.63;;;;;;;15.33;77.08;101394.47;4939961;28;20608;-60
2022/07/06 03:57:53;;;;;;;3.83;1.75;;;;;;;15.35;76.88;101397.88;4947680;28;20074;-60
2022/07/06 04:00:20;;;;;;;4.10;1.60;;;;;;;15.36;77.06;101384.53;4940415;28;20142;-59
2022/07/06 04:02:47;;;;;;;5.10;1.55;;;;;;;15.35;77.35;101390.75;4943014;28;20058;-60
2022/07/06 04:05:15;;;;;;;5.75;1.40;;;;;;;15.39;77.12;101388.75;4929621;28;20081;-60
2022/07/06 04:07:42;;;;;;;4.18;1.42;;;;;;;15.42;76.83;101389.41;4947477;28;20054;-60
2022/07/06 04:10:09;;;;;;;4.28;1.73;;;;;;;15.37;76.37;101402.13;4957732;28;20058;-57
2022/07/06 04:12:41;;;;;;;6.45;1.52;;;;;;;15.33;76.56;101394.47;4961975;28;20061;-59
2022/07/06 04:15:08;;;;;;;2.88;1.38;;;;;;;15.35;76.10;101396.06;4934951;29;20062;-57
2022/07/06 04:17:55;;;;;;;4.38;1.50;;;;;;;15.43;75.96;101401.72;4947717;28;20066;-61
2022/07/06 04:20:25;;;;;;;6.00;1.52;;;;;;;15.51;74.79;101403.88;4943936;28;20468;-57
2022/07/06 04:22:52;;;;;;;6.53;1.45;;;;;;;15.57;73.84;101402.59;4943625;28;20063;-61
2022/07/06 04:25:19;;;;;;;3.60;1.63;;;;;;;15.62;73.02;101405.78;4944783;28;20055;-57
2022/07/06 04:27:47;;;;;;;6.35;1.83;;;;;;;15.63;72.55;101400.38;4949250;28;20055;-58
2022/07/06 04:30:14;;;;;;;4.65;1.40;;;;;;;15.67;72.32;101399.25;4952763;28;20051;-59
2022/07/06 04:32:41;;;;;;;5.97;1.40;;;;;;;15.65;72.09;101393.19;4937826;28;21778;-60
2022/07/06 04:35:08;;;;;;;6.22;1.77;;;;;;;15.60;72.24;101399.75;4957516;28;20066;-60
2022/07/06 04:37:36;;;;;;;4.75;1.33;;;;;;;15.58;72.07;101404.28;4962982;28;20051;-58
2022/07/06 04:40:04;;;;;;;4.93;1.73;;;;;;;15.57;72.01;101398.13;4940188;28;20059;-58
2022/07/06 04:42:31;;;;;;;5.28;1.35;;;;;;;15.50;71.90;101396.84;4952927;28;20550;-58
2022/07/06 04:44:58;;;;;;;5.13;1.88;;;;;;;15.46;72.03;101403.31;4947989;28;20047;-57
2022/07/06 04:47:25;;;;;;;10.90;1.67;;;;;;;15.47;71.98;101399.72;4918585;28;20415;-58
2022/07/06 04:49:52;;;;;;;9.40;2.20;;;;;;;15.52;71.98;101400.25;4954251;28;20059;-59
2022/07/06 04:52:20;;;;;;;6.45;1.85;;;;;;;15.54;71.87;101397.50;4949264;28;20141;-59
2022/07/06 04:54:47;;;;;;;4.57;1.35;;;;;;;15.59;71.91;101398.88;4948380;28;20060;-58
2022/07/06 04:57:14;;;;;;;4.65;1.20;;;;;;;15.60;71.85;101386.47;4949364;28;20059;-61
2022/07/06 04:59:41;;;;;;;7.95;1.50;;;;;;;15.64;71.77;101388.00;4953241;28;20047;-59
2022/07/06 05:02:08;;;;;;;9.75;1.50;;;;;;;15.64;71.96;101385.34;4949426;28;20067;-59
2022/07/06 05:04:36;;;;;;;7.07;1.35;;;;;;;15.69;71.69;101391.19;4953608;28;20062;-58
2022/07/06 05:07:03;;;;;;;5.75;1.70;;;;;;;15.68;71.06;101400.09;4952861;28;20051;-60
2022/07/06 05:09:31;;;;;;;8.40;1.60;;;;;;;15.66;71.21;101394.03;4929152;28;20524;-60
2022/07/06 05:11:58;;;;;;;4.80;1.35;;;;;;;15.62;71.37;101398.66;4957179;28;20055;-57
2022/07/06 05:14:25;;;;;;;8.70;1.73;;;;;;;15.72;71.42;101406.91;4943324;28;20082;-59
2022/07/06 05:16:52;;;;;;;8.88;1.33;;;;;;;15.77;70.51;101410.09;4948715;28;20396;-58
2022/07/06 05:19:20;;;;;;;6.55;1.58;;;;;;;15.86;70.82;101417.44;4941810;28;20148;-55
2022/07/06 05:21:47;;;;;;;4.70;1.55;;;;;;;16.01;69.46;101419.97;4949118;28;20066;-51
2022/07/06 05:24:15;;;;;;;8.65;1.30;;;;;;;16.25;68.17;101407.63;4945557;28;20055;-50
2022/07/06 05:26:42;;;;;;;7.57;1.65;;;;;;;16.10;68.97;101398.94;4947870;28;20061;-47
2022/07/06 05:29:09;;;;;;;5.95;1.73;;;;;;;16.20;68.40;101405.31;4945440;28;20062;-54
2022/07/06 05:31:37;;;;;;;4.45;1.40;;;;;;;16.46;66.86;101400.81;4942740;28;20094;-52
2022/07/06 05:34:05;;;;;;;5.50;1.75;;;;;;;16.46;66.21;101398.16;4951188;28;20051;-49
2022/07/06 05:36:32;;;;;;;5.68;1.05;;;;;;;16.55;66.28;101395.81;4945430;28;20150;-52
2022/07/06 05:39:00;;;;;;;12.77;1.80;;;;;;;16.69;66.01;101404.47;4938605;28;20062;-55
2022/07/06 05:41:27;;;;;;;8.32;1.63;;;;;;;16.67;65.01;101398.44;4946209;28;20057;-52
2022/07/06 05:43:57;;;;;;;4.30;1.55;;;;;;;16.77;65.05;101397.81;4958205;28;20158;-50
2022/07/06 05:46:25;;;;;;;5.50;1.48;;;;;;;16.93;64.15;101396.56;4954856;28;20063;-54
2022/07/06 05:51:38;;;;;;;7.55;1.52;;;;;;;17.12;62.94;101395.22;4954247;28;20066;-49
2022/07/06 05:54:05;;;;;;;7.30;1.48;;;;;;;17.28;62.21;101401.06;4950122;28;20416;-52
2022/07/06 05:56:32;;;;;;;8.48;1.63;;;;;;;17.28;61.22;101403.72;4942064;28;20070;-47
2022/07/06 05:58:59;;;;;;;9.35;1.55;;;;;;;17.38;60.88;101402.09;4945089;28;20064;-52
2022/07/06 06:01:26;;;;;;;7.43;1.23;;;;;;;17.30;60.60;101395.66;4942585;28;20171;-51
2022/07/06 06:03:54;;;;;;;6.03;1.40;;;;;;;17.24;60.98;101399.59;4952130;28;20051;-47
2022/07/06 06:06:21;;;;;;;6.82;1.48;;;;;;;17.30;60.88;101393.84;4950852;28;20054;-53
2022/07/06 06:08:48;;;;;;;7.25;1.23;;;;;;;17.24;61.01;101401.41;4951279;28;20047;-49
2022/07/06 06:11:15;;;;;;;3.45;1.38;;;;;;;17.02;61.70;101400.38;4931515;29;20126;-49
2022/07/06 06:13:42;;;;;;;8.15;1.25;;;;;;;16.98;62.25;101403.38;4948738;28;20051;-46
2022/07/06 06:16:09;;;;;;;10.35;2.55;;;;;;;17.08;62.08;101399.06;4953699;28;20066;-49
2022/07/06 06:18:37;;;;;;;5.18;1.27;;;;;;;16.88;62.37;101401.34;4948491;28;20063;-46
2022/07/06 06:21:09;;;;;;;7.13;1.42;;;;;;;16.93;62.74;101406.34;4956325;28;20070;-46
2022/07/06 06:23:36;;;;;;;9.00;1.42;;;;;;;16.92;62.71;101401.97;4947301;28;20078;-47
2022/07/06 06:26:04;;;;;;;7.45;1.38;;;;;;;17.02;62.33;101412.78;4944904;28;20170;-47
2022/07/06 06:28:31;;;;;;;4.63;1.17;;;;;;;16.99;62.65;101410.38;4945780;28;20601;-44
2022/07/06 06:30:58;;;;;;;6.15;1.30;;;;;;;16.90;63.16;101398.59;4948009;28;20056;-48
2022/07/06 06:33:25;;;;;;;5.32;1.40;;;;;;;16.83;63.10;101400.00;4948909;28;20618;-47
2022/07/06 06:35:53;;;;;;;8.02;1.60;;;;;;;17.04;62.87;101405.56;4946837;28;20047;-50
2022/07/06 06:38:22;;;;;;;6.15;1.58;;;;;;;16.93;62.90;101414.31;4949261;28;20054;-49
2022/07/06 06:40:50;;;;;;;5.45;1.20;;;;;;;16.88;62.14;101406.66;4951467;28;20047;-46
2022/07/06 06:43:17;;;;;;;8.68;1.48;;;;;;;16.92;62.25;101404.66;4937080;28;20050;-47
2022/07/06 06:45:45;;;;;;;7.00;1.77;;;;;;;17.08;62.10;101407.03;4950010;28;20059;-46
2022/07/06 06:48:12;;;;;;;8.70;2.25;;;;;;;17.10;61.54;101402.44;4947573;28;20051;-50
2022/07/06 06:50:44;;;;;;;8.80;1.52;;;;;;;16.99;62.24;101403.25;4943753;28;20509;-53
2022/07/06 06:53:11;;;;;;;6.15;1.60;;;;;;;16.98;61.88;101412.19;4960282;28;20058;-54
2022/07/06 06:55:39;;;;;;;10.10;1.45;;;;;;;17.09;61.51;101412.25;4946993;28;20140;-49
2022/07/06 06:58:06;;;;;;;9.30;1.92;;;;;;;17.12;61.29;101404.03;4947807;28;20074;-49
2022/07/06 07:00:33;;;;;;;5.65;1.48;;;;;;;17.32;60.48;101409.69;4944752;28;20074;-55
2022/07/06 07:03:00;;;;;;;10.68;1.50;;;;;;;17.45;59.94;101402.47;4958133;28;20058;-55
2022/07/06 07:05:28;;;;;;;11.13;1.50;;;;;;;17.56;59.59;101405.19;4944361;28;20063;-50
2022/07/06 07:07:58;;;;;;;6.03;1.35;;;;;;;17.59;59.12;101402.28;4952592;28;20059;-53
2022/07/06 07:10:31;;;;;;;5.88;1.60;;;;;;;17.49;58.83;101413.75;4951648;28;20532;-52
2022/07/06 07:12:59;;;;;;;6.90;1.52;;;;;;;17.49;59.26;101411.94;4953550;28;20051;-53
2022/07/06 07:15:26;;;;;;;18.00;1.63;;;;;;;17.89;57.58;101416.91;4943361;28;20055;-53
2022/07/06 07:17:53;;;;;;;6.03;2.03;;;;;;;18.26;56.16;101416.72;4954915;28;20051;-54
2022/07/06 07:20:21;;;;;;;9.15;1.50;;;;;;;17.89;57.70;101412.44;4953145;28;20047;-52
2022/07/06 07:22:48;;;;;;;7.18;1.90;;;;;;;17.98;58.02;101404.69;4952131;28;20490;-51
2022/07/06 07:25:15;;;;;;;8.30;1.70;;;;;;;17.92;56.71;101412.22;4956966;28;20058;-49
2022/07/06 07:27:42;;;;;;;7.80;1.63;;;;;;;17.75;56.62;101417.97;4952925;28;20051;-54
2022/07/06 07:30:10;;;;;;;3.47;1.30;;;;;;;17.80;56.84;101418.47;4950927;28;20146;-52
2022/07/06 07:32:40;;;;;;;11.57;2.03;;;;;;;17.92;55.63;101428.19;4945604;28;20074;-53
2022/07/06 07:35:08;;;;;;;4.43;1.58;;;;;;;17.77;54.89;101413.38;4945177;28;20086;-52
2022/07/06 07:37:35;;;;;;;8.18;1.38;;;;;;;17.74;54.59;101423.41;4945168;28;20043;-53
2022/07/06 07:40:02;;;;;;;3.88;1.20;;;;;;;17.82;53.55;101418.34;4950990;28;20123;-50
2022/07/06 07:42:30;;;;;;;9.07;1.55;;;;;;;18.10;52.51;101430.38;4949087;28;20063;-54
2022/07/06 07:44:57;;;;;;;4.43;0.82;;;;;;;18.17;51.46;101426.28;4952139;28;20067;-54
2022/07/06 07:47:24;;;;;;;8.88;1.60;;;;;;;18.50;51.35;101428.09;4950199;28;20054;-52
2022/07/06 07:49:51;;;;;;;4.32;0.90;;;;;;;18.81;49.42;101418.50;4948139;28;20047;-52
2022/07/06 07:52:19;;;;;;;1.42;0.88;;;;;;;18.85;49.61;101424.44;4952015;28;20055;-53
2022/07/06 07:54:46;;;;;;;3.67;0.70;;;;;;;19.34;48.37;101433.75;4945845;28;20052;-53
2022/07/06 07:57:29;;;;;;;2.22;0.70;;;;;;;19.37;47.09;101434.38;4943563;28;20070;-55
2022/07/06 07:59:56;;;;;;;6.13;0.98;;;;;;;19.13;47.28;101426.53;4951160;28;20063;-53
2022/07/06 08:02:23;;;;;;;3.67;0.93;;;;;;;19.19;47.46;101433.22;4957260;28;20107;-53
2022/07/06 08:04:50;;;;;;;5.53;1.10;;;;;;;19.08;48.36;101438.56;4965289;28;20087;-59
2022/07/06 08:07:17;;;;;;;4.25;1.00;;;;;;;19.05;48.52;101431.69;4955534;28;20059;-55
2022/07/06 08:09:45;;;;;;;3.97;1.10;;;;;;;19.10;48.38;101432.16;4953505;28;20066;-52
2022/07/06 08:12:12;;;;;;;3.90;0.85;;;;;;;18.89;49.11;101429.41;4949169;28;20070;-52
2022/07/06 08:14:39;;;;;;;5.93;0.77;;;;;;;19.17;48.27;101446.66;4945666;28;20055;-51
2022/07/06 08:17:06;;;;;;;2.85;1.00;;;;;;;19.27;47.58;101438.75;4945980;28;20526;-51
2022/07/06 08:19:34;;;;;;;2.08;0.90;;;;;;;19.36;47.24;101432.69;4948305;28;20065;-52
2022/07/06 08:22:06;;;;;;;5.82;1.40;;;;;;;19.62;46.48;101429.66;4949574;28;20042;-53
2022/07/06 08:24:34;;;;;;;4.78;0.80;;;;;;;19.49;46.97;101427.13;4948371;28;20420;-59
2022/07/06 08:27:03;;;;;;;6.10;1.40;;;;;;;19.83;46.77;101435.03;4949997;28;20133;-53
2022/07/06 08:29:31;;;;;;;7.68;1.23;;;;;;;19.31;47.53;101432.19;4942843;28;20066;-54
2022/07/06 08:31:58;;;;;;;5.03;0.98;;;;;;;19.13;48.11;101431.88;4944817;28;20472;-56
2022/07/06 08:34:37;;;;;;;5.15;1.13;;;;;;;19.31;48.25;101436.69;4946435;28;20075;-57
2022/07/06 08:37:04;;;;;;;3.03;1.00;;;;;;;19.41;48.10;101449.16;4949938;28;20065;-51
2022/07/06 08:39:31;;;;;;;2.72;0.93;;;;;;;19.09;49.19;101443.81;4947722;28;20100;-53
2022/07/06 08:41:58;;;;;;;7.40;1.08;;;;;;;19.19;48.57;101442.06;4944912;28;20058;-53
2022/07/06 08:44:26;;;;;;;6.65;1.30;;;;;;;19.19;48.46;101436.72;4927737;28;20055;-55
2022/07/06 08:46:54;;;;;;;8.68;1.00;;;;;;;19.41;48.19;101435.81;4946072;28;20063;-54
2022/07/06 08:49:22;;;;;;;6.65;1.10;;;;;;;19.58;46.54;101431.69;4930202;28;20067;-57
2022/07/06 08:51:50;;;;;;;4.00;0.85;;;;;;;19.26;46.00;101442.41;4949547;28;20055;-52
2022/07/06 08:54:18;;;;;;;6.75;0.90;;;;;;;19.14;46.71;101435.44;4918248;28;20067;-51
2022/07/06 08:56:45;;;;;;;10.27;1.30;;;;;;;19.31;45.07;101448.19;4947048;28;20057;-54
2022/07/06 08:59:15;;;;;;;7.82;1.10;;;;;;;18.97;45.34;101436.78;4951559;28;20058;-54
2022/07/06 09:01:44;;;;;;;10.10;1.40;;;;;;;18.98;45.62;101443.81;4929861;28;20509;-54
2022/07/06 09:04:12;;;;;;;5.03;1.33;;;;;;;19.22;45.07;101440.97;4973022;23;20516;-46
2022/07/06 09:06:42;;;;;;;6.20;1.25;;;;;;;19.22;43.42;101441.81;4999215;28;20064;-53
2022/07/06 09:09:09;;;;;;;3.42;1.00;;;;;;;19.32;43.43;101446.38;5006804;28;20512;-53
2022/07/06 09:11:37;;;;;;;3.70;0.77;;;;;;;19.36;42.88;101450.50;5004320;28;20054;-48
2022/07/06 09:14:05;;;;;;;7.53;1.27;;;;;;;19.75;42.04;101443.69;4991758;28;20500;-49
2022/07/06 09:16:32;;;;;;;7.15;1.10;;;;;;;19.44;41.88;101442.69;4973721;28;20062;-51
2022/07/06 09:19:07;;;;;;;8.48;0.90;;;;;;;19.36;42.41;101455.84;4980161;28;21129;-45
2022/07/06 09:21:38;;;;;;;4.00;0.98;;;;;;;19.52;41.79;101448.25;4988105;28;20085;-50
2022/07/06 09:24:10;;;;;;;4.30;1.10;;;;;;;19.70;41.90;101448.56;4990269;28;20497;-46
2022/07/06 09:26:39;;;;;;;7.63;1.50;;;;;;;19.76;40.68;101439.19;4985980;28;20046;-48
2022/07/06 09:29:07;;;;;;;4.13;0.90;;;;;;;20.00;40.34;101444.28;4989919;28;20054;-51
2022/07/06 09:31:34;;;;;;;3.47;0.82;;;;;;;19.84;39.90;101442.88;5003450;28;20061;-45
2022/07/06 09:34:10;;;;;;;6.03;1.00;;;;;;;19.67;39.56;101446.97;4988122;28;20467;-49
2022/07/06 09:36:41;;;;;;;14.60;1.27;;;;;;;19.68;39.40;101448.72;4986075;28;20073;-47
2022/07/06 09:39:23;;;;;;;3.60;0.80;;;;;;;19.39;38.58;101443.09;4986155;28;20659;-51
2022/07/06 09:41:55;;;;;;;3.05;0.63;;;;;;;19.14;39.56;101444.28;4987541;28;20047;-48
2022/07/06 09:44:25;;;;;;;4.57;1.20;;;;;;;19.24;39.96;101449.69;4985479;28;20149;-47
2022/07/06 09:46:53;;;;;;;4.53;0.90;;;;;;;19.00;39.97;101444.53;4981757;28;20137;-53
2022/07/06 09:49:21;;;;;;;10.85;1.00;;;;;;;19.33;40.09;101450.78;4975933;28;20375;-50
2022/07/06 09:51:54;;;;;;;11.30;1.10;;;;;;;19.54;39.39;101446.28;4979451;28;20060;-50
2022/07/06 09:54:22;;;;;;;16.73;1.27;;;;;;;19.69;39.45;101449.53;4990065;28;20050;-51
2022/07/06 09:56:53;;;;;;;6.45;0.82;;;;;;;19.86;39.30;101438.28;4987600;28;20402;-52
2022/07/06 09:59:22;;;;;;;8.10;0.68;;;;;;;19.96;39.62;101443.69;4983577;28;20051;-50
2022/07/06 10:01:51;;;;;;;8.63;1.25;;;;;;;20.40;39.47;101449.69;4991979;28;20540;-49
2022/07/06 10:04:20;;;;;;;13.02;1.30;;;;;;;20.54;40.11;101448.50;4991659;28;20119;-52
2022/07/06 10:06:48;;;;;;;4.47;0.70;;;;;;;20.04;40.29;101469.72;4991392;28;20047;-52
2022/07/06 10:09:16;;;;;;;3.25;1.00;;;;;;;19.86;40.74;101457.00;4970704;28;20069;-51
2022/07/06 10:11:58;;;;;;;4.05;0.90;;;;;;;19.67;40.67;101473.69;4992223;28;20046;-51
2022/07/06 10:14:31;;;;;;;7.57;1.55;;;;;;;19.39;41.12;101468.94;4985852;28;20061;-49
2022/07/06 10:17:02;;;;;;;15.18;1.27;;;;;;;19.69;41.05;101461.06;4993969;28;20141;-48
2022/07/06 10:19:30;;;;;;;2.45;0.85;;;;;;;19.77;40.84;101465.78;4990924;28;20055;-50
2022/07/06 10:22:02;;;;;;;5.25;0.60;;;;;;;19.75;41.13;101464.22;4992057;28;20050;-54
2022/07/06 10:24:30;;;;;;;12.10;0.90;;;;;;;20.04;40.47;101469.72;4995535;28;20058;-53
2022/07/06 10:26:58;;;;;;;24.55;1.65;;;;;;;19.55;41.86;101464.03;4994610;28;20050;-52
2022/07/06 10:29:25;;;;;;;2.88;1.02;;;;;;;19.90;41.71;101457.56;4994420;28;20054;-48
2022/07/06 10:31:53;;;;;;;1.92;0.75;;;;;;;20.25;41.27;101451.84;4992813;28;20061;-51
2022/07/06 10:34:21;;;;;;;9.23;0.90;;;;;;;20.42;41.24;101461.94;4968934;28;20069;-46
2022/07/06 10:36:51;;;;;;;2.30;0.70;;;;;;;20.48;41.41;101449.88;4969702;28;20463;-45
2022/07/06 10:42:41;;;;;;;5.68;0.98;;;;;;;20.53;40.96;101452.16;4986155;28;20077;-49
2022/07/06 10:45:10;;;;;;;4.03;1.05;;;;;;;20.75;38.86;101457.28;4986173;28;20065;-49
2022/07/06 10:47:42;;;;;;;3.17;0.70;;;;;;;20.67;38.99;101458.00;4987126;28;20042;-50
2022/07/06 10:50:11;;;;;;;4.43;0.70;;;;;;;20.53;38.61;101460.16;4979366;28;20057;-52
2022/07/06 10:52:57;;;;;;;2.75;0.60;;;;;;;20.76;39.16;101447.44;4966959;28;20514;-50
2022/07/06 10:55:42;;;;;;;3.15;0.93;;;;;;;20.71;39.34;101440.69;4976976;28;20062;-50
2022/07/06 10:58:12;;;;;;;2.97;0.82;;;;;;;20.94;38.55;101444.00;4989712;28;20057;-49
2022/07/06 11:00:53;;;;;;;2.50;0.60;;;;;;;21.04;38.97;101454.72;4991340;28;20061;-48
2022/07/06 11:03:34;;;;;;;7.57;1.17;;;;;;;21.34;38.60;101455.59;4981507;28;20073;-52
2022/07/06 11:06:05;;;;;;;4.50;0.80;;;;;;;21.99;37.32;101446.81;4983686;28;20092;-48
2022/07/06 11:08:46;;;;;;;4.03;1.00;;;;;;;21.65;37.78;101441.06;4979966;28;20491;-54
2022/07/06 11:11:16;;;;;;;2.33;0.68;;;;;;;21.70;37.86;101436.16;4986373;28;20046;-50
2022/07/06 11:13:51;;;;;;;4.72;0.82;;;;;;;22.08;37.42;101450.47;4981576;28;20053;-56
2022/07/06 11:16:19;;;;;;;;;;;;;;;21.83;36.76;101435.84;4980832;28;20054;-48
2022/07/06 11:18:59;;;;;;;4.53;1.30;;;;;;;21.45;37.78;101450.13;4981341;28;19945;-47
2022/07/06 11:21:40;;;;;;;7.53;0.90;;;;;;;21.43;38.10;101447.59;4981817;28;20062;-49
2022/07/06 11:24:10;;;;;;;3.35;0.95;;;;;;;21.11;38.59;101442.44;4984190;28;20525;-47
2022/07/06 11:26:37;;;;;;;6.05;0.85;;;;;;;20.89;39.10;101435.53;4980053;28;20091;-50
2022/07/06 11:29:07;;;;;;;5.15;1.20;;;;;;;20.93;39.22;101431.56;4984826;28;20911;-46
2022/07/06 11:31:37;;;;;;;13.90;2.03;;;;;;;20.48;40.68;101440.03;4986690;28;20144;-51
2022/07/06 11:34:06;;;;;;;5.05;0.98;;;;;;;20.41;41.05;101430.00;4989755;28;20382;-52
2022/07/06 11:36:33;;;;;;;3.63;1.10;;;;;;;20.18;41.88;101435.50;4980071;28;20051;-53